sensor_id;sensor_type;location;lat;lon;timestamp;temperature;humidity
3564;DHT22;1796;52.388;13.096;2024-01-16T00:01:45;-0.30;99.90
3564;DHT22;1796;52.388;13.096;2024-01-16T00:04:12;-0.30;99.90
3564;DHT22;1796;52.388;13.096;2024-01-16T00:06:39;-0.30;99.90
3564;DHT22;1796;52.388;13.096;2024-01-16T00:09:06;-0.30;99.90
3564;DHT22;1796;52.388;13.096;2024-01-16T00:11:34;-0.40;99.90
3564;DHT22;1796;52.388;13.096;2024-01-16T00:14:07;-0.40;99.90
3564;DHT22;1796;52.388;13.096;2024-01-16T00:16:36;-0.40;99.90
3564;DHT22;1796;52.388;13.096;2024-01-16T00:19:07;-0.40;99.90
3564;DHT22;1796;52.388;13.096;2024-01-16T00:21:38;-0.40;99.90
3564;DHT22;1796;52.388;13.096;2024-01-16T00:24:05;-0.40;99.90
3564;DHT22;1796;52.388;13.096;2024-01-16T00:26:32;-0.40;99.90
3564;DHT22;1796;52.388;13.096;2024-01-16T00:28:59;-0.40;99.90
3564;DHT22;1796;52.388;13.096;2024-01-16T00:31:27;-0.30;99.90
3564;DHT22;1796;52.388;13.096;2024-01-16T00:33:54;-0.40;99.90
3564;DHT22;1796;52.388;13.096;2024-01-16T00:36:21;-0.40;99.90
3564;DHT22;1796;52.388;13.096;2024-01-16T00:38:48;-0.40;99.90
3564;DHT22;1796;52.388;13.096;2024-01-16T00:41:15;-0.40;99.90
3564;DHT22;1796;52.388;13.096;2024-01-16T00:43:43;-0.40;99.90
3564;DHT22;1796;52.388;13.096;2024-01-16T00:46:10;-0.50;99.90
3564;DHT22;1796;52.388;13.096;2024-01-16T00:48:38;-0.50;99.90
3564;DHT22;1796;52.388;13.096;2024-01-16T00:51:05;-0.40;99.90
3564;DHT22;1796;52.388;13.096;2024-01-16T00:53:32;-0.40;99.90
3564;DHT22;1796;52.388;13.096;2024-01-16T00:55:59;-0.50;99.90
3564;DHT22;1796;52.388;13.096;2024-01-16T00:58:26;-0.50;99.90
3564;DHT22;1796;52.388;13.096;2024-01-16T01:00:52;-0.50;99.90
3564;DHT22;1796;52.388;13.096;2024-01-16T01:03:21;-0.40;99.90
3564;DHT22;1796;52.388;13.096;2024-01-16T01:05:49;-0.40;99.90
3564;DHT22;1796;52.388;13.096;2024-01-16T01:08:17;-0.30;99.90
3564;DHT22;1796;52.388;13.096;2024-01-16T01:10:44;-0.20;99.90
3564;DHT22;1796;52.388;13.096;2024-01-16T01:13:11;-0.20;99.90
3564;DHT22;1796;52.388;13.096;2024-01-16T01:15:38;-0.10;99.90
3564;DHT22;1796;52.388;13.096;2024-01-16T01:18:05;0.00;99.90
3564;DHT22;1796;52.388;13.096;2024-01-16T01:20:32;-0.10;99.90
3564;DHT22;1796;52.388;13.096;2024-01-16T01:23:01;-0.10;99.90
3564;DHT22;1796;52.388;13.096;2024-01-16T01:25:27;-0.20;99.90
3564;DHT22;1796;52.388;13.096;2024-01-16T01:27:54;-0.70;99.90
3564;DHT22;1796;52.388;13.096;2024-01-16T01:30:21;-0.80;99.90
3564;DHT22;1796;52.388;13.096;2024-01-16T01:32:48;-1.00;99.90
3564;DHT22;1796;52.388;13.096;2024-01-16T01:35:17;-1.10;99.90
3564;DHT22;1796;52.388;13.096;2024-01-16T01:37:45;-1.20;99.90
3564;DHT22;1796;52.388;13.096;2024-01-16T01:40:13;-1.20;99.90
3564;DHT22;1796;52.388;13.096;2024-01-16T01:42:41;-1.40;99.90
3564;DHT22;1796;52.388;13.096;2024-01-16T01:45:08;-1.50;99.90
3564;DHT22;1796;52.388;13.096;2024-01-16T01:47:36;-1.60;99.90
3564;DHT22;1796;52.388;13.096;2024-01-16T01:50:03;-1.60;99.90
3564;DHT22;1796;52.388;13.096;2024-01-16T01:52:31;-1.70;99.90
3564;DHT22;1796;52.388;13.096;2024-01-16T01:54:59;-1.90;99.90
3564;DHT22;1796;52.388;13.096;2024-01-16T01:57:27;-1.90;99.90
3564;DHT22;1796;52.388;13.096;2024-01-16T01:59:54;-2.00;99.90
3564;DHT22;1796;52.388;13.096;2024-01-16T02:02:21;-2.00;99.90
3564;DHT22;1796;52.388;13.096;2024-01-16T02:04:49;-1.90;99.90
3564;DHT22;1796;52.388;13.096;2024-01-16T02:07:17;-2.00;99.90
3564;DHT22;1796;52.388;13.096;2024-01-16T02:09:44;-2.00;99.90
3564;DHT22;1796;52.388;13.096;2024-01-16T02:12:11;-1.90;99.90
3564;DHT22;1796;52.388;13.096;2024-01-16T02:14:39;-2.00;99.90
3564;DHT22;1796;52.388;13.096;2024-01-16T02:17:06;-2.00;99.90
3564;DHT22;1796;52.388;13.096;2024-01-16T02:19:33;-2.00;99.90
3564;DHT22;1796;52.388;13.096;2024-01-16T02:22:00;-1.90;99.90
3564;DHT22;1796;52.388;13.096;2024-01-16T02:24:32;-1.90;99.90
3564;DHT22;1796;52.388;13.096;2024-01-16T02:26:59;-1.80;99.90
3564;DHT22;1796;52.388;13.096;2024-01-16T02:29:26;-1.80;99.90
3564;DHT22;1796;52.388;13.096;2024-01-16T02:31:53;-1.80;99.90
3564;DHT22;1796;52.388;13.096;2024-01-16T02:34:20;-1.80;99.90
3564;DHT22;1796;52.388;13.096;2024-01-16T02:36:47;-1.80;99.90
3564;DHT22;1796;52.388;13.096;2024-01-16T02:39:13;-1.80;99.90
3564;DHT22;1796;52.388;13.096;2024-01-16T02:41:42;-1.70;99.90
3564;DHT22;1796;52.388;13.096;2024-01-16T02:44:09;-1.80;99.90
3564;DHT22;1796;52.388;13.096;2024-01-16T02:46:35;-1.70;99.90
3564;DHT22;1796;52.388;13.096;2024-01-16T02:49:04;-1.60;99.90
3564;DHT22;1796;52.388;13.096;2024-01-16T02:51:32;-1.60;99.90
3564;DHT22;1796;52.388;13.096;2024-01-16T02:53:59;-1.60;99.90
3564;DHT22;1796;52.388;13.096;2024-01-16T02:56:26;-1.60;99.90
3564;DHT22;1796;52.388;13.096;2024-01-16T02:58:54;-1.50;99.90
3564;DHT22;1796;52.388;13.096;2024-01-16T03:01:21;-1.50;99.90
3564;DHT22;1796;52.388;13.096;2024-01-16T03:03:48;-1.50;99.90
3564;DHT22;1796;52.388;13.096;2024-01-16T03:06:21;-1.50;99.90
3564;DHT22;1796;52.388;13.096;2024-01-16T03:08:49;-1.50;99.90
3564;DHT22;1796;52.388;13.096;2024-01-16T03:11:16;-1.50;99.90
3564;DHT22;1796;52.388;13.096;2024-01-16T03:13:43;-1.50;99.90
3564;DHT22;1796;52.388;13.096;2024-01-16T03:16:12;-1.50;99.90
3564;DHT22;1796;52.388;13.096;2024-01-16T03:18:39;-1.50;99.90
3564;DHT22;1796;52.388;13.096;2024-01-16T03:21:06;-1.50;99.90
3564;DHT22;1796;52.388;13.096;2024-01-16T03:23:34;-1.60;99.90
3564;DHT22;1796;52.388;13.096;2024-01-16T03:26:01;-1.50;99.90
3564;DHT22;1796;52.388;13.096;2024-01-16T03:28:29;-1.50;99.90
3564;DHT22;1796;52.388;13.096;2024-01-16T03:30:56;-1.60;99.90
3564;DHT22;1796;52.388;13.096;2024-01-16T03:33:24;-1.70;99.90
3564;DHT22;1796;52.388;13.096;2024-01-16T03:35:51;-1.60;99.90
3564;DHT22;1796;52.388;13.096;2024-01-16T03:38:18;-1.60;99.90
3564;DHT22;1796;52.388;13.096;2024-01-16T03:40:44;-1.60;99.90
3564;DHT22;1796;52.388;13.096;2024-01-16T03:43:11;-1.60;99.90
3564;DHT22;1796;52.388;13.096;2024-01-16T03:45:38;-1.50;99.90
3564;DHT22;1796;52.388;13.096;2024-01-16T03:48:05;-1.50;99.90
3564;DHT22;1796;52.388;13.096;2024-01-16T03:50:34;-1.60;99.90
3564;DHT22;1796;52.388;13.096;2024-01-16T03:53:02;-1.60;99.90
3564;DHT22;1796;52.388;13.096;2024-01-16T03:55:29;-1.60;99.90
3564;DHT22;1796;52.388;13.096;2024-01-16T03:57:56;-1.70;99.90
3564;DHT22;1796;52.388;13.096;2024-01-16T04:00:23;-1.60;99.90
3564;DHT22;1796;52.388;13.096;2024-01-16T04:02:50;-1.60;99.90
3564;DHT22;1796;52.388;13.096;2024-01-16T04:05:17;-1.50;99.90
3564;DHT22;1796;52.388;13.096;2024-01-16T04:07:45;-1.60;99.90
3564;DHT22;1796;52.388;13.096;2024-01-16T04:10:12;-1.60;99.90
3564;DHT22;1796;52.388;13.096;2024-01-16T04:12:39;-1.60;99.90
3564;DHT22;1796;52.388;13.096;2024-01-16T04:15:06;-1.60;99.90
3564;DHT22;1796;52.388;13.096;2024-01-16T04:17:33;-1.60;99.90
3564;DHT22;1796;52.388;13.096;2024-01-16T04:20:00;-1.60;99.90
3564;DHT22;1796;52.388;13.096;2024-01-16T04:22:27;-1.60;99.90
3564;DHT22;1796;52.388;13.096;2024-01-16T04:24:55;-1.70;99.90
3564;DHT22;1796;52.388;13.096;2024-01-16T04:27:22;-1.80;99.90
3564;DHT22;1796;52.388;13.096;2024-01-16T04:29:49;-1.90;99.90
3564;DHT22;1796;52.388;13.096;2024-01-16T04:32:16;-1.90;99.90
3564;DHT22;1796;52.388;13.096;2024-01-16T04:34:43;-1.90;99.90
3564;DHT22;1796;52.388;13.096;2024-01-16T04:37:10;-2.00;99.90
3564;DHT22;1796;52.388;13.096;2024-01-16T04:39:37;-2.20;99.90
3564;DHT22;1796;52.388;13.096;2024-01-16T04:42:05;-2.20;99.90
3564;DHT22;1796;52.388;13.096;2024-01-16T04:44:32;-2.30;99.90
3564;DHT22;1796;52.388;13.096;2024-01-16T04:46:59;-2.30;99.90
3564;DHT22;1796;52.388;13.096;2024-01-16T04:49:26;-2.30;99.90
3564;DHT22;1796;52.388;13.096;2024-01-16T04:51:52;-2.30;99.90
3564;DHT22;1796;52.388;13.096;2024-01-16T04:54:19;-2.20;99.90
3564;DHT22;1796;52.388;13.096;2024-01-16T04:56:46;-2.20;99.90
3564;DHT22;1796;52.388;13.096;2024-01-16T04:59:14;-2.10;99.90
3564;DHT22;1796;52.388;13.096;2024-01-16T05:01:41;-2.20;99.90
3564;DHT22;1796;52.388;13.096;2024-01-16T05:04:08;-2.20;99.90
3564;DHT22;1796;52.388;13.096;2024-01-16T05:06:35;-2.20;99.90
3564;DHT22;1796;52.388;13.096;2024-01-16T05:09:02;-2.10;99.90
3564;DHT22;1796;52.388;13.096;2024-01-16T05:11:29;-2.20;99.90
3564;DHT22;1796;52.388;13.096;2024-01-16T05:13:56;-2.20;99.90
3564;DHT22;1796;52.388;13.096;2024-01-16T05:16:25;-2.20;99.90
3564;DHT22;1796;52.388;13.096;2024-01-16T05:18:52;-2.30;99.90
3564;DHT22;1796;52.388;13.096;2024-01-16T05:21:19;-2.40;99.90
3564;DHT22;1796;52.388;13.096;2024-01-16T05:23:46;-2.50;99.90
3564;DHT22;1796;52.388;13.096;2024-01-16T05:26:13;-2.60;99.90
3564;DHT22;1796;52.388;13.096;2024-01-16T05:28:40;-2.70;99.90
3564;DHT22;1796;52.388;13.096;2024-01-16T05:31:07;-2.80;99.90
3564;DHT22;1796;52.388;13.096;2024-01-16T05:33:35;-2.80;99.90
3564;DHT22;1796;52.388;13.096;2024-01-16T05:36:02;-2.80;99.90
3564;DHT22;1796;52.388;13.096;2024-01-16T05:38:29;-2.80;99.90
3564;DHT22;1796;52.388;13.096;2024-01-16T05:40:56;-2.90;99.90
3564;DHT22;1796;52.388;13.096;2024-01-16T05:43:23;-3.00;99.90
3564;DHT22;1796;52.388;13.096;2024-01-16T05:45:50;-3.00;99.90
3564;DHT22;1796;52.388;13.096;2024-01-16T05:48:17;-3.00;99.90
3564;DHT22;1796;52.388;13.096;2024-01-16T05:50:46;-3.10;99.90
3564;DHT22;1796;52.388;13.096;2024-01-16T05:53:13;-3.10;99.90
3564;DHT22;1796;52.388;13.096;2024-01-16T05:55:40;-3.20;99.90
3564;DHT22;1796;52.388;13.096;2024-01-16T05:58:07;-3.20;99.90
3564;DHT22;1796;52.388;13.096;2024-01-16T06:00:33;-3.20;99.90
3564;DHT22;1796;52.388;13.096;2024-01-16T06:03:00;-3.20;99.90
3564;DHT22;1796;52.388;13.096;2024-01-16T06:05:28;-3.30;99.90
3564;DHT22;1796;52.388;13.096;2024-01-16T06:07:56;-3.30;99.90
3564;DHT22;1796;52.388;13.096;2024-01-16T06:10:23;-3.30;99.90
3564;DHT22;1796;52.388;13.096;2024-01-16T06:12:50;-3.30;99.90
3564;DHT22;1796;52.388;13.096;2024-01-16T06:15:17;-3.10;99.90
3564;DHT22;1796;52.388;13.096;2024-01-16T06:17:44;-3.10;99.90
3564;DHT22;1796;52.388;13.096;2024-01-16T06:20:11;-3.00;99.90
3564;DHT22;1796;52.388;13.096;2024-01-16T06:22:38;-3.00;99.90
3564;DHT22;1796;52.388;13.096;2024-01-16T06:25:07;-3.00;99.90
3564;DHT22;1796;52.388;13.096;2024-01-16T06:27:34;-3.00;99.90
3564;DHT22;1796;52.388;13.096;2024-01-16T06:30:01;-2.90;99.90
3564;DHT22;1796;52.388;13.096;2024-01-16T06:32:29;-2.90;99.90
3564;DHT22;1796;52.388;13.096;2024-01-16T06:34:56;-2.80;99.90
3564;DHT22;1796;52.388;13.096;2024-01-16T06:37:23;-2.80;99.90
3564;DHT22;1796;52.388;13.096;2024-01-16T06:39:49;-2.70;99.90
3564;DHT22;1796;52.388;13.096;2024-01-16T06:42:18;-2.60;99.90
3564;DHT22;1796;52.388;13.096;2024-01-16T06:44:45;-2.50;99.90
3564;DHT22;1796;52.388;13.096;2024-01-16T06:47:12;-2.50;99.90
3564;DHT22;1796;52.388;13.096;2024-01-16T06:49:39;-2.40;99.90
3564;DHT22;1796;52.388;13.096;2024-01-16T06:52:10;-2.30;99.90
3564;DHT22;1796;52.388;13.096;2024-01-16T06:54:37;-2.20;99.90
3564;DHT22;1796;52.388;13.096;2024-01-16T06:57:04;-2.10;99.90
3564;DHT22;1796;52.388;13.096;2024-01-16T06:59:33;-2.00;99.90
3564;DHT22;1796;52.388;13.096;2024-01-16T07:02:01;-1.80;99.90
3564;DHT22;1796;52.388;13.096;2024-01-16T07:04:28;-1.70;99.90
3564;DHT22;1796;52.388;13.096;2024-01-16T07:06:55;-1.60;99.90
3564;DHT22;1796;52.388;13.096;2024-01-16T07:09:22;-1.50;99.90
3564;DHT22;1796;52.388;13.096;2024-01-16T07:11:50;-1.50;99.90
3564;DHT22;1796;52.388;13.096;2024-01-16T07:14:17;-1.50;99.90
3564;DHT22;1796;52.388;13.096;2024-01-16T07:16:45;-1.50;99.90
3564;DHT22;1796;52.388;13.096;2024-01-16T07:19:12;-1.50;99.90
3564;DHT22;1796;52.388;13.096;2024-01-16T07:21:39;-1.50;99.90
3564;DHT22;1796;52.388;13.096;2024-01-16T07:24:06;-1.60;99.90
3564;DHT22;1796;52.388;13.096;2024-01-16T07:26:33;-1.40;99.90
3564;DHT22;1796;52.388;13.096;2024-01-16T07:29:00;-1.40;99.90
3564;DHT22;1796;52.388;13.096;2024-01-16T07:31:27;-1.40;99.90
3564;DHT22;1796;52.388;13.096;2024-01-16T07:33:59;-1.30;99.90
3564;DHT22;1796;52.388;13.096;2024-01-16T07:36:26;-1.30;99.90
3564;DHT22;1796;52.388;13.096;2024-01-16T07:38:54;-1.30;99.90
3564;DHT22;1796;52.388;13.096;2024-01-16T07:41:21;-1.20;99.90
3564;DHT22;1796;52.388;13.096;2024-01-16T07:43:48;-1.20;99.90
3564;DHT22;1796;52.388;13.096;2024-01-16T07:46:15;-1.10;99.90
3564;DHT22;1796;52.388;13.096;2024-01-16T07:48:43;-1.10;99.90
3564;DHT22;1796;52.388;13.096;2024-01-16T07:51:12;-1.00;99.90
3564;DHT22;1796;52.388;13.096;2024-01-16T07:53:38;-1.00;99.90
3564;DHT22;1796;52.388;13.096;2024-01-16T07:56:05;-1.00;99.90
3564;DHT22;1796;52.388;13.096;2024-01-16T07:58:33;-0.90;99.90
3564;DHT22;1796;52.388;13.096;2024-01-16T08:01:00;-0.90;99.90
3564;DHT22;1796;52.388;13.096;2024-01-16T08:03:32;-0.80;99.90
3564;DHT22;1796;52.388;13.096;2024-01-16T08:06:07;-0.80;99.90
3564;DHT22;1796;52.388;13.096;2024-01-16T08:08:35;-0.60;99.90
3564;DHT22;1796;52.388;13.096;2024-01-16T08:11:03;-0.70;99.90
3564;DHT22;1796;52.388;13.096;2024-01-16T08:13:30;-0.60;99.90
3564;DHT22;1796;52.388;13.096;2024-01-16T08:15:57;-0.50;99.90
3564;DHT22;1796;52.388;13.096;2024-01-16T08:18:24;-0.60;99.90
3564;DHT22;1796;52.388;13.096;2024-01-16T08:20:52;-0.50;99.90
3564;DHT22;1796;52.388;13.096;2024-01-16T08:23:19;-0.60;99.90
3564;DHT22;1796;52.388;13.096;2024-01-16T08:25:48;-0.60;99.90
3564;DHT22;1796;52.388;13.096;2024-01-16T08:28:19;-0.50;99.90
3564;DHT22;1796;52.388;13.096;2024-01-16T08:30:49;-0.40;99.90
3564;DHT22;1796;52.388;13.096;2024-01-16T08:33:16;-0.40;99.90
3564;DHT22;1796;52.388;13.096;2024-01-16T08:35:46;-0.40;99.90
3564;DHT22;1796;52.388;13.096;2024-01-16T08:38:13;-0.40;99.90
3564;DHT22;1796;52.388;13.096;2024-01-16T08:40:41;-0.40;99.90
3564;DHT22;1796;52.388;13.096;2024-01-16T08:43:15;-0.30;99.90
3564;DHT22;1796;52.388;13.096;2024-01-16T08:45:42;-0.30;99.90
3564;DHT22;1796;52.388;13.096;2024-01-16T08:48:09;-0.20;99.90
3564;DHT22;1796;52.388;13.096;2024-01-16T08:50:40;-0.20;99.90
3564;DHT22;1796;52.388;13.096;2024-01-16T08:53:10;-0.10;99.90
3564;DHT22;1796;52.388;13.096;2024-01-16T08:55:40;0.00;99.90
3564;DHT22;1796;52.388;13.096;2024-01-16T08:58:07;-0.10;99.90
3564;DHT22;1796;52.388;13.096;2024-01-16T09:00:38;-0.10;99.90
3564;DHT22;1796;52.388;13.096;2024-01-16T09:03:05;-0.10;99.90
3564;DHT22;1796;52.388;13.096;2024-01-16T09:05:33;-0.10;99.90
3564;DHT22;1796;52.388;13.096;2024-01-16T09:08:10;-0.10;99.90
3564;DHT22;1796;52.388;13.096;2024-01-16T09:11:05;0.00;99.90
3564;DHT22;1796;52.388;13.096;2024-01-16T09:14:33;0.00;99.90
3564;DHT22;1796;52.388;13.096;2024-01-16T09:20:28;0.00;99.90
3564;DHT22;1796;52.388;13.096;2024-01-16T09:26:08;-0.10;99.90
3564;DHT22;1796;52.388;13.096;2024-01-16T09:28:41;-0.20;99.90
3564;DHT22;1796;52.388;13.096;2024-01-16T09:31:17;-0.20;99.90
3564;DHT22;1796;52.388;13.096;2024-01-16T09:33:54;-0.20;99.90
3564;DHT22;1796;52.388;13.096;2024-01-16T09:36:57;-0.10;99.90
3564;DHT22;1796;52.388;13.096;2024-01-16T09:39:31;0.00;99.90
3564;DHT22;1796;52.388;13.096;2024-01-16T09:42:04;0.10;99.90
3564;DHT22;1796;52.388;13.096;2024-01-16T09:44:31;0.20;99.90
3564;DHT22;1796;52.388;13.096;2024-01-16T09:47:02;0.20;99.90
3564;DHT22;1796;52.388;13.096;2024-01-16T09:49:30;0.20;99.90
3564;DHT22;1796;52.388;13.096;2024-01-16T09:52:02;0.20;99.90
3564;DHT22;1796;52.388;13.096;2024-01-16T09:54:31;0.20;99.90
3564;DHT22;1796;52.388;13.096;2024-01-16T09:56:59;0.30;99.90
3564;DHT22;1796;52.388;13.096;2024-01-16T09:59:36;0.30;99.90
3564;DHT22;1796;52.388;13.096;2024-01-16T10:02:35;0.30;99.90
3564;DHT22;1796;52.388;13.096;2024-01-16T10:05:12;0.30;99.90
3564;DHT22;1796;52.388;13.096;2024-01-16T10:07:45;0.40;99.90
3564;DHT22;1796;52.388;13.096;2024-01-16T10:10:17;0.50;99.90
3564;DHT22;1796;52.388;13.096;2024-01-16T10:13:11;0.40;99.90
3564;DHT22;1796;52.388;13.096;2024-01-16T10:20:00;0.50;99.90
3564;DHT22;1796;52.388;13.096;2024-01-16T10:22:58;0.50;99.90
3564;DHT22;1796;52.388;13.096;2024-01-16T10:26:12;0.50;99.90
3564;DHT22;1796;52.388;13.096;2024-01-16T10:28:52;0.40;99.90
3564;DHT22;1796;52.388;13.096;2024-01-16T10:31:29;0.30;99.90
3564;DHT22;1796;52.388;13.096;2024-01-16T10:33:57;0.40;99.90
3564;DHT22;1796;52.388;13.096;2024-01-16T10:36:24;0.50;99.90
3564;DHT22;1796;52.388;13.096;2024-01-16T10:39:02;0.50;99.90
3564;DHT22;1796;52.388;13.096;2024-01-16T10:41:30;0.60;99.90
3564;DHT22;1796;52.388;13.096;2024-01-16T10:44:04;0.70;99.90
3564;DHT22;1796;52.388;13.096;2024-01-16T10:46:32;0.70;99.90
3564;DHT22;1796;52.388;13.096;2024-01-16T10:49:00;0.80;99.90
3564;DHT22;1796;52.388;13.096;2024-01-16T10:51:31;0.80;99.90
3564;DHT22;1796;52.388;13.096;2024-01-16T10:54:05;0.70;99.90
3564;DHT22;1796;52.388;13.096;2024-01-16T11:01:49;0.70;99.90
3564;DHT22;1796;52.388;13.096;2024-01-16T11:03:42;0.70;99.90
3564;DHT22;1796;52.388;13.096;2024-01-16T11:27:31;0.90;99.90
3564;DHT22;1796;52.388;13.096;2024-01-16T11:30:01;0.90;99.90
3564;DHT22;1796;52.388;13.096;2024-01-16T11:32:36;0.80;99.90
3564;DHT22;1796;52.388;13.096;2024-01-16T11:35:07;0.80;99.90
3564;DHT22;1796;52.388;13.096;2024-01-16T11:37:36;0.70;99.90
3564;DHT22;1796;52.388;13.096;2024-01-16T11:40:23;0.70;99.90
3564;DHT22;1796;52.388;13.096;2024-01-16T11:42:54;0.80;99.90
3564;DHT22;1796;52.388;13.096;2024-01-16T11:45:49;0.90;99.90
3564;DHT22;1796;52.388;13.096;2024-01-16T11:48:19;0.90;99.90
3564;DHT22;1796;52.388;13.096;2024-01-16T11:50:50;0.90;99.90
3564;DHT22;1796;52.388;13.096;2024-01-16T11:53:34;0.90;99.90
3564;DHT22;1796;52.388;13.096;2024-01-16T11:59:57;0.90;99.90
3564;DHT22;1796;52.388;13.096;2024-01-16T12:02:49;0.90;99.90
3564;DHT22;1796;52.388;13.096;2024-01-16T12:05:40;0.70;99.90
3564;DHT22;1796;52.388;13.096;2024-01-16T12:08:12;0.80;99.90
3564;DHT22;1796;52.388;13.096;2024-01-16T12:10:57;0.90;99.90
3564;DHT22;1796;52.388;13.096;2024-01-16T12:13:27;1.00;99.90
3564;DHT22;1796;52.388;13.096;2024-01-16T12:16:01;1.00;99.90
3564;DHT22;1796;52.388;13.096;2024-01-16T12:18:29;1.00;99.90
3564;DHT22;1796;52.388;13.096;2024-01-16T12:20:56;1.10;99.90
3564;DHT22;1796;52.388;13.096;2024-01-16T12:23:24;1.00;99.90
3564;DHT22;1796;52.388;13.096;2024-01-16T12:25:52;0.90;99.90
3564;DHT22;1796;52.388;13.096;2024-01-16T12:28:21;0.90;99.90
3564;DHT22;1796;52.388;13.096;2024-01-16T12:30:50;1.00;99.90
3564;DHT22;1796;52.388;13.096;2024-01-16T12:33:22;0.90;99.90
3564;DHT22;1796;52.388;13.096;2024-01-16T12:35:49;1.00;99.90
3564;DHT22;1796;52.388;13.096;2024-01-16T12:38:17;0.90;99.90
3564;DHT22;1796;52.388;13.096;2024-01-16T12:40:45;1.00;99.90
3564;DHT22;1796;52.388;13.096;2024-01-16T12:43:16;1.00;99.90
3564;DHT22;1796;52.388;13.096;2024-01-16T12:45:54;1.00;99.90
3564;DHT22;1796;52.388;13.096;2024-01-16T12:48:28;1.00;99.90
3564;DHT22;1796;52.388;13.096;2024-01-16T12:51:05;0.90;99.90
3564;DHT22;1796;52.388;13.096;2024-01-16T12:53:33;0.80;99.90
3564;DHT22;1796;52.388;13.096;2024-01-16T12:56:02;0.70;99.90
3564;DHT22;1796;52.388;13.096;2024-01-16T12:58:32;0.60;99.90
3564;DHT22;1796;52.388;13.096;2024-01-16T13:01:21;0.50;99.90
3564;DHT22;1796;52.388;13.096;2024-01-16T13:03:50;0.40;99.90
3564;DHT22;1796;52.388;13.096;2024-01-16T13:06:18;0.50;99.90
3564;DHT22;1796;52.388;13.096;2024-01-16T13:08:45;0.50;99.90
3564;DHT22;1796;52.388;13.096;2024-01-16T13:11:13;0.40;99.90
3564;DHT22;1796;52.388;13.096;2024-01-16T13:13:42;0.60;99.90
3564;DHT22;1796;52.388;13.096;2024-01-16T13:16:08;0.40;99.90
3564;DHT22;1796;52.388;13.096;2024-01-16T13:18:37;0.50;99.90
3564;DHT22;1796;52.388;13.096;2024-01-16T13:21:06;0.50;99.90
3564;DHT22;1796;52.388;13.096;2024-01-16T13:23:32;0.50;99.90
3564;DHT22;1796;52.388;13.096;2024-01-16T13:26:01;0.50;99.90
3564;DHT22;1796;52.388;13.096;2024-01-16T13:28:29;0.50;99.90
3564;DHT22;1796;52.388;13.096;2024-01-16T13:30:56;0.60;99.90
3564;DHT22;1796;52.388;13.096;2024-01-16T13:33:24;0.60;99.90
3564;DHT22;1796;52.388;13.096;2024-01-16T13:35:53;0.50;99.90
3564;DHT22;1796;52.388;13.096;2024-01-16T13:38:22;0.60;99.90
3564;DHT22;1796;52.388;13.096;2024-01-16T13:40:49;0.70;99.90
3564;DHT22;1796;52.388;13.096;2024-01-16T13:43:17;0.70;99.90
3564;DHT22;1796;52.388;13.096;2024-01-16T13:45:44;0.60;99.90
3564;DHT22;1796;52.388;13.096;2024-01-16T13:48:15;0.50;99.90
3564;DHT22;1796;52.388;13.096;2024-01-16T13:50:46;0.50;99.90
3564;DHT22;1796;52.388;13.096;2024-01-16T13:53:13;0.40;99.90
3564;DHT22;1796;52.388;13.096;2024-01-16T13:55:42;0.20;99.90
3564;DHT22;1796;52.388;13.096;2024-01-16T13:58:09;0.30;99.90
3564;DHT22;1796;52.388;13.096;2024-01-16T14:00:37;0.30;99.90
3564;DHT22;1796;52.388;13.096;2024-01-16T14:03:04;0.30;99.90
3564;DHT22;1796;52.388;13.096;2024-01-16T14:05:32;0.30;99.90
3564;DHT22;1796;52.388;13.096;2024-01-16T14:08:00;0.50;99.90
3564;DHT22;1796;52.388;13.096;2024-01-16T14:10:27;0.40;99.90
3564;DHT22;1796;52.388;13.096;2024-01-16T14:12:56;0.40;99.90
3564;DHT22;1796;52.388;13.096;2024-01-16T14:15:22;0.50;99.90
3564;DHT22;1796;52.388;13.096;2024-01-16T14:17:51;0.40;99.90
3564;DHT22;1796;52.388;13.096;2024-01-16T14:20:19;0.40;99.90
3564;DHT22;1796;52.388;13.096;2024-01-16T14:22:50;0.50;99.90
3564;DHT22;1796;52.388;13.096;2024-01-16T14:25:17;0.50;99.90
3564;DHT22;1796;52.388;13.096;2024-01-16T14:27:48;0.40;99.90
3564;DHT22;1796;52.388;13.096;2024-01-16T14:30:19;0.30;99.90
3564;DHT22;1796;52.388;13.096;2024-01-16T14:32:49;0.20;99.90
3564;DHT22;1796;52.388;13.096;2024-01-16T16:16:21;0.10;99.90
3564;DHT22;1796;52.388;13.096;2024-01-16T16:19:45;0.10;99.90
3564;DHT22;1796;52.388;13.096;2024-01-16T16:22:50;0.10;99.90
3564;DHT22;1796;52.388;13.096;2024-01-16T16:32:47;0.20;99.90
3564;DHT22;1796;52.388;13.096;2024-01-16T16:43:27;0.00;99.90
3564;DHT22;1796;52.388;13.096;2024-01-16T16:46:05;-0.10;99.90
3564;DHT22;1796;52.388;13.096;2024-01-16T16:55:29;-0.30;99.90
3564;DHT22;1796;52.388;13.096;2024-01-16T16:58:08;-0.40;99.90
3564;DHT22;1796;52.388;13.096;2024-01-16T17:01:21;-0.30;99.90
3564;DHT22;1796;52.388;13.096;2024-01-16T17:03:54;-0.10;99.90
3564;DHT22;1796;52.388;13.096;2024-01-16T17:06:33;-0.20;99.90
3564;DHT22;1796;52.388;13.096;2024-01-16T17:09:06;-0.20;99.90
3564;DHT22;1796;52.388;13.096;2024-01-16T17:11:41;-0.20;99.90
3564;DHT22;1796;52.388;13.096;2024-01-16T17:14:14;-0.10;99.90
3564;DHT22;1796;52.388;13.096;2024-01-16T17:16:47;-0.10;99.90
3564;DHT22;1796;52.388;13.096;2024-01-16T17:19:18;-0.20;99.90
3564;DHT22;1796;52.388;13.096;2024-01-16T17:21:50;-0.20;99.90
3564;DHT22;1796;52.388;13.096;2024-01-16T17:24:22;-0.30;99.90
3564;DHT22;1796;52.388;13.096;2024-01-16T17:26:59;-0.30;99.90
3564;DHT22;1796;52.388;13.096;2024-01-16T17:29:33;-0.30;99.90
3564;DHT22;1796;52.388;13.096;2024-01-16T17:32:17;-0.40;99.90
3564;DHT22;1796;52.388;13.096;2024-01-16T17:34:47;-0.40;99.90
3564;DHT22;1796;52.388;13.096;2024-01-16T17:37:17;-0.50;99.90
3564;DHT22;1796;52.388;13.096;2024-01-16T17:39:44;-0.60;99.90
3564;DHT22;1796;52.388;13.096;2024-01-16T17:42:12;-0.50;99.90
3564;DHT22;1796;52.388;13.096;2024-01-16T17:44:51;-0.60;99.90
3564;DHT22;1796;52.388;13.096;2024-01-16T17:47:23;-0.60;99.90
3564;DHT22;1796;52.388;13.096;2024-01-16T17:50:00;-0.60;99.90
3564;DHT22;1796;52.388;13.096;2024-01-16T17:52:28;-0.60;99.90
3564;DHT22;1796;52.388;13.096;2024-01-16T17:54:58;-0.60;99.90
3564;DHT22;1796;52.388;13.096;2024-01-16T17:57:26;-0.60;99.90
3564;DHT22;1796;52.388;13.096;2024-01-16T17:59:53;-0.50;99.90
3564;DHT22;1796;52.388;13.096;2024-01-16T18:02:20;-0.60;99.90
3564;DHT22;1796;52.388;13.096;2024-01-16T18:04:47;-0.60;99.90
3564;DHT22;1796;52.388;13.096;2024-01-16T18:07:14;-0.60;99.90
3564;DHT22;1796;52.388;13.096;2024-01-16T18:09:42;-0.60;99.90
3564;DHT22;1796;52.388;13.096;2024-01-16T18:12:09;-0.70;99.90
3564;DHT22;1796;52.388;13.096;2024-01-16T18:14:37;-0.80;99.90
3564;DHT22;1796;52.388;13.096;2024-01-16T18:17:05;-0.90;99.90
3564;DHT22;1796;52.388;13.096;2024-01-16T18:19:35;-1.00;99.90
3564;DHT22;1796;52.388;13.096;2024-01-16T18:22:02;-0.80;99.90
3564;DHT22;1796;52.388;13.096;2024-01-16T18:24:31;-1.10;99.90
3564;DHT22;1796;52.388;13.096;2024-01-16T18:27:00;-1.10;99.90
3564;DHT22;1796;52.388;13.096;2024-01-16T18:29:27;-1.20;99.90
3564;DHT22;1796;52.388;13.096;2024-01-16T18:31:55;-1.20;99.90
3564;DHT22;1796;52.388;13.096;2024-01-16T18:34:27;-1.30;99.90
3564;DHT22;1796;52.388;13.096;2024-01-16T18:36:56;-1.30;99.90
3564;DHT22;1796;52.388;13.096;2024-01-16T18:39:24;-1.20;99.90
3564;DHT22;1796;52.388;13.096;2024-01-16T18:41:51;-1.20;99.90
3564;DHT22;1796;52.388;13.096;2024-01-16T18:44:20;-1.10;99.90
3564;DHT22;1796;52.388;13.096;2024-01-16T18:46:47;-1.10;99.90
3564;DHT22;1796;52.388;13.096;2024-01-16T18:49:14;-1.10;99.90
3564;DHT22;1796;52.388;13.096;2024-01-16T18:51:41;-1.00;99.90